sensor_id;sensor_type;location;lat;lon;timestamp;pressure;altitude;pressure_sealevel;temperature;humidity
13011;BME280;6786;57.632;11.962;2023-12-07T00:00:24;101536.59;;;18.88;33.23
13011;BME280;6786;57.632;11.962;2023-12-07T00:02:52;101526.00;;;18.86;33.25
13011;BME280;6786;57.632;11.962;2023-12-07T00:05:22;101533.03;;;18.87;33.17
13011;BME280;6786;57.632;11.962;2023-12-07T00:07:50;101521.47;;;18.87;33.31
13011;BME280;6786;57.632;11.962;2023-12-07T00:10:18;101526.00;;;18.86;33.25
13011;BME280;6786;57.632;11.962;2023-12-07T00:12:47;101517.19;;;18.84;33.36
13011;BME280;6786;57.632;11.962;2023-12-07T00:15:15;101515.28;;;18.86;33.18
13011;BME280;6786;57.632;11.962;2023-12-07T00:17:43;101520.63;;;18.86;33.16
13011;BME280;6786;57.632;11.962;2023-12-07T00:20:12;101521.47;;;18.87;33.18
13011;BME280;6786;57.632;11.962;2023-12-07T00:22:41;101526.81;;;18.87;33.25
13011;BME280;6786;57.632;11.962;2023-12-07T00:25:10;101526.81;;;18.87;33.14
13011;BME280;6786;57.632;11.962;2023-12-07T00:27:38;101516.09;;;18.87;33.21
13011;BME280;6786;57.632;11.962;2023-12-07T00:30:07;101532.19;;;18.87;33.13
13011;BME280;6786;57.632;11.962;2023-12-07T00:32:36;101522.56;;;18.84;33.16
13011;BME280;6786;57.632;11.962;2023-12-07T00:35:05;101526.81;;;18.87;33.13
13011;BME280;6786;57.632;11.962;2023-12-07T00:37:35;101506.41;;;18.73;33.15
13011;BME280;6786;57.632;11.962;2023-12-07T00:40:05;101521.47;;;18.87;33.18
13011;BME280;6786;57.632;11.962;2023-12-07T00:42:36;101525.13;;;18.86;33.18
13011;BME280;6786;57.632;11.962;2023-12-07T00:45:05;101520.75;;;18.85;33.14
13011;BME280;6786;57.632;11.962;2023-12-07T00:47:33;101528.78;;;18.85;33.07
13011;BME280;6786;57.632;11.962;2023-12-07T00:50:01;101531.34;;;18.86;33.19
13011;BME280;6786;57.632;11.962;2023-12-07T00:52:30;101535.84;;;18.86;33.32
13011;BME280;6786;57.632;11.962;2023-12-07T00:54:58;101494.56;;;18.65;33.26
13011;BME280;6786;57.632;11.962;2023-12-07T00:57:39;101532.41;;;18.84;33.23
13011;BME280;6786;57.632;11.962;2023-12-07T01:00:08;101527.03;;;18.84;33.11
13011;BME280;6786;57.632;11.962;2023-12-07T01:02:37;101521.69;;;18.84;33.25
13011;BME280;6786;57.632;11.962;2023-12-07T01:05:06;101525.13;;;18.86;33.20
13011;BME280;6786;57.632;11.962;2023-12-07T01:07:35;101519.75;;;18.86;33.20
13011;BME280;6786;57.632;11.962;2023-12-07T01:10:05;101523.44;;;18.85;33.19
13011;BME280;6786;57.632;11.962;2023-12-07T01:12:33;101516.34;;;18.84;33.15
13011;BME280;6786;57.632;11.962;2023-12-07T01:15:04;101518.06;;;18.85;33.23
13011;BME280;6786;57.632;11.962;2023-12-07T01:17:33;101521.69;;;18.84;33.27
13011;BME280;6786;57.632;11.962;2023-12-07T01:20:01;101516.56;;;18.81;33.13
13011;BME280;6786;57.632;11.962;2023-12-07T01:22:34;101516.34;;;18.84;33.14
13011;BME280;6786;57.632;11.962;2023-12-07T01:25:02;101527.91;;;18.84;33.11
13011;BME280;6786;57.632;11.962;2023-12-07T01:27:31;101527.91;;;18.84;33.12
13011;BME280;6786;57.632;11.962;2023-12-07T01:29:59;101518.06;;;18.85;33.16
13011;BME280;6786;57.632;11.962;2023-12-07T01:32:29;101528.78;;;18.85;33.12
13011;BME280;6786;57.632;11.962;2023-12-07T01:34:57;101528.78;;;18.85;33.04
13011;BME280;6786;57.632;11.962;2023-12-07T01:37:26;101528.78;;;18.85;33.24
13011;BME280;6786;57.632;11.962;2023-12-07T01:39:54;101539.50;;;18.85;33.08
13011;BME280;6786;57.632;11.962;2023-12-07T01:42:22;101539.72;;;18.82;33.14
13011;BME280;6786;57.632;11.962;2023-12-07T01:44:51;101540.44;;;18.84;33.14
13011;BME280;6786;57.632;11.962;2023-12-07T01:47:19;101537.75;;;18.84;33.13
13011;BME280;6786;57.632;11.962;2023-12-07T01:49:49;101539.50;;;18.85;33.22
13011;BME280;6786;57.632;11.962;2023-12-07T01:52:19;101530.72;;;18.83;33.12
13011;BME280;6786;57.632;11.962;2023-12-07T01:54:49;101529.13;;;18.80;33.06
13011;BME280;6786;57.632;11.962;2023-12-07T01:57:17;101532.41;;;18.84;33.15
13011;BME280;6786;57.632;11.962;2023-12-07T01:59:46;101529.72;;;18.84;33.02
13011;BME280;6786;57.632;11.962;2023-12-07T02:02:14;101532.41;;;18.84;33.20
13011;BME280;6786;57.632;11.962;2023-12-07T02:04:42;101532.41;;;18.84;33.22
13011;BME280;6786;57.632;11.962;2023-12-07T02:07:13;101535.09;;;18.84;33.13
13011;BME280;6786;57.632;11.962;2023-12-07T02:09:42;101515.31;;;18.74;33.25
13011;BME280;6786;57.632;11.962;2023-12-07T02:12:11;101528.78;;;18.85;33.07
13011;BME280;6786;57.632;11.962;2023-12-07T02:14:39;101502.91;;;18.73;33.12
13011;BME280;6786;57.632;11.962;2023-12-07T02:17:14;101529.63;;;18.85;33.04
13011;BME280;6786;57.632;11.962;2023-12-07T02:19:56;101532.41;;;18.84;33.08
13011;BME280;6786;57.632;11.962;2023-12-07T02:22:31;101533.38;;;18.83;33.12
13011;BME280;6786;57.632;11.962;2023-12-07T02:25:07;101525.34;;;18.83;33.15
13011;BME280;6786;57.632;11.962;2023-12-07T02:27:38;101529.00;;;18.82;33.08
13011;BME280;6786;57.632;11.962;2023-12-07T02:30:09;101529.00;;;18.82;33.11
13011;BME280;6786;57.632;11.962;2023-12-07T02:32:39;101492.88;;;18.64;33.18
13011;BME280;6786;57.632;11.962;2023-12-07T02:35:09;101486.06;;;18.60;33.11
13011;BME280;6786;57.632;11.962;2023-12-07T02:37:42;101529.00;;;18.82;33.16
13011;BME280;6786;57.632;11.962;2023-12-07T02:40:12;101529.00;;;18.82;33.18
13011;BME280;6786;57.632;11.962;2023-12-07T02:42:43;101529.00;;;18.82;33.07
13011;BME280;6786;57.632;11.962;2023-12-07T02:45:12;101519.13;;;18.82;33.09
13011;BME280;6786;57.632;11.962;2023-12-07T02:47:41;101520.84;;;18.83;33.00
13011;BME280;6786;57.632;11.962;2023-12-07T02:50:12;101516.34;;;18.84;33.20
13011;BME280;6786;57.632;11.962;2023-12-07T02:52:41;101520.00;;;18.83;33.13
13011;BME280;6786;57.632;11.962;2023-12-07T02:55:10;101509.75;;;18.77;32.96
13011;BME280;6786;57.632;11.962;2023-12-07T02:57:38;101516.34;;;18.84;33.00
13011;BME280;6786;57.632;11.962;2023-12-07T03:00:09;101519.13;;;18.82;33.08
13011;BME280;6786;57.632;11.962;2023-12-07T03:02:40;101523.66;;;18.82;33.02
13011;BME280;6786;57.632;11.962;2023-12-07T03:05:08;101529.00;;;18.82;33.09
13011;BME280;6786;57.632;11.962;2023-12-07T03:07:36;101527.28;;;18.81;33.07
13011;BME280;6786;57.632;11.962;2023-12-07T03:10:05;101529.97;;;18.81;33.10
13011;BME280;6786;57.632;11.962;2023-12-07T03:12:34;101529.84;;;18.82;33.19
13011;BME280;6786;57.632;11.962;2023-12-07T03:15:02;101523.66;;;18.82;33.12
13011;BME280;6786;57.632;11.962;2023-12-07T03:17:32;101530.72;;;18.83;33.01
13011;BME280;6786;57.632;11.962;2023-12-07T03:20:01;101534.38;;;18.82;33.04
13011;BME280;6786;57.632;11.962;2023-12-07T03:22:30;101523.66;;;18.82;33.18
13011;BME280;6786;57.632;11.962;2023-12-07T03:24:59;101528.13;;;18.81;33.13
13011;BME280;6786;57.632;11.962;2023-12-07T03:27:27;101530.06;;;18.79;33.00
13011;BME280;6786;57.632;11.962;2023-12-07T03:29:55;101529.00;;;18.82;33.01
13011;BME280;6786;57.632;11.962;2023-12-07T03:32:24;101529.00;;;18.82;33.15
13011;BME280;6786;57.632;11.962;2023-12-07T03:34:54;101522.78;;;18.81;33.09
13011;BME280;6786;57.632;11.962;2023-12-07T03:37:22;101526.34;;;18.82;32.97
13011;BME280;6786;57.632;11.962;2023-12-07T03:39:51;101523.66;;;18.82;33.14
13011;BME280;6786;57.632;11.962;2023-12-07T03:42:19;101529.00;;;18.82;33.04
13011;BME280;6786;57.632;11.962;2023-12-07T03:45:08;101534.38;;;18.82;33.03
13011;BME280;6786;57.632;11.962;2023-12-07T03:47:36;101529.00;;;18.82;33.08
13011;BME280;6786;57.632;11.962;2023-12-07T03:50:06;101529.00;;;18.82;33.00
13011;BME280;6786;57.632;11.962;2023-12-07T03:52:35;101530.81;;;18.81;32.96
13011;BME280;6786;57.632;11.962;2023-12-07T03:55:04;101529.00;;;18.82;33.03
13011;BME280;6786;57.632;11.962;2023-12-07T03:57:32;101528.13;;;18.81;33.07
13011;BME280;6786;57.632;11.962;2023-12-07T04:00:01;101519.13;;;18.82;33.12
13011;BME280;6786;57.632;11.962;2023-12-07T04:02:32;101527.16;;;18.82;33.06
13011;BME280;6786;57.632;11.962;2023-12-07T04:05:00;101523.66;;;18.82;33.05
13011;BME280;6786;57.632;11.962;2023-12-07T04:07:31;101514.75;;;18.81;33.08
13011;BME280;6786;57.632;11.962;2023-12-07T04:09:59;101523.66;;;18.82;33.08
13011;BME280;6786;57.632;11.962;2023-12-07T04:12:27;101523.66;;;18.82;32.97
13011;BME280;6786;57.632;11.962;2023-12-07T04:14:56;101523.66;;;18.82;33.04
13011;BME280;6786;57.632;11.962;2023-12-07T04:17:24;101530.72;;;18.83;33.08
13011;BME280;6786;57.632;11.962;2023-12-07T04:19:52;101534.25;;;18.83;33.01
13011;BME280;6786;57.632;11.962;2023-12-07T04:22:20;101536.94;;;18.83;33.04
13011;BME280;6786;57.632;11.962;2023-12-07T04:24:50;101536.06;;;18.83;32.92
13011;BME280;6786;57.632;11.962;2023-12-07T04:27:19;101536.06;;;18.83;32.90
13011;BME280;6786;57.632;11.962;2023-12-07T04:29:47;101543.13;;;18.84;32.97
13011;BME280;6786;57.632;11.962;2023-12-07T04:32:15;101531.56;;;18.83;33.04
13011;BME280;6786;57.632;11.962;2023-12-07T04:34:43;101534.38;;;18.82;33.10
13011;BME280;6786;57.632;11.962;2023-12-07T04:37:12;101536.06;;;18.83;33.07
13011;BME280;6786;57.632;11.962;2023-12-07T04:39:41;101529.00;;;18.82;33.05
13011;BME280;6786;57.632;11.962;2023-12-07T04:42:10;101536.06;;;18.83;33.00
13011;BME280;6786;57.632;11.962;2023-12-07T04:44:38;101530.72;;;18.83;32.87
13011;BME280;6786;57.632;11.962;2023-12-07T04:47:07;101531.69;;;18.82;32.96
13011;BME280;6786;57.632;11.962;2023-12-07T04:49:35;101536.06;;;18.83;32.95
13011;BME280;6786;57.632;11.962;2023-12-07T04:52:04;101530.72;;;18.83;32.93
13011;BME280;6786;57.632;11.962;2023-12-07T04:54:32;101533.38;;;18.83;32.88
13011;BME280;6786;57.632;11.962;2023-12-07T04:57:01;101541.41;;;18.83;33.04
13011;BME280;6786;57.632;11.962;2023-12-07T04:59:30;101543.34;;;18.81;32.94
13011;BME280;6786;57.632;11.962;2023-12-07T05:01:59;101537.75;;;18.84;32.98
13011;BME280;6786;57.632;11.962;2023-12-07T05:04:27;101530.94;;;18.80;32.99
13011;BME280;6786;57.632;11.962;2023-12-07T05:06:55;101543.34;;;18.81;32.87
13011;BME280;6786;57.632;11.962;2023-12-07T05:09:24;101505.50;;;18.62;32.96
13011;BME280;6786;57.632;11.962;2023-12-07T05:11:52;101535.19;;;18.82;32.93
13011;BME280;6786;57.632;11.962;2023-12-07T05:14:21;101531.69;;;18.82;32.96
13011;BME280;6786;57.632;11.962;2023-12-07T05:16:51;101534.38;;;18.82;32.92
13011;BME280;6786;57.632;11.962;2023-12-07T05:19:22;101531.69;;;18.82;32.83
13011;BME280;6786;57.632;11.962;2023-12-07T05:21:51;101530.94;;;18.80;32.96
13011;BME280;6786;57.632;11.962;2023-12-07T05:24:20;101532.41;;;18.84;32.91
13011;BME280;6786;57.632;11.962;2023-12-07T05:26:48;101527.03;;;18.84;32.91
13011;BME280;6786;57.632;11.962;2023-12-07T05:29:17;101525.34;;;18.83;32.92
13011;BME280;6786;57.632;11.962;2023-12-07T05:31:48;101527.03;;;18.84;32.95
13011;BME280;6786;57.632;11.962;2023-12-07T05:34:19;101524.47;;;18.82;33.00
13011;BME280;6786;57.632;11.962;2023-12-07T05:36:47;101524.47;;;18.82;32.99
13011;BME280;6786;57.632;11.962;2023-12-07T05:39:15;101518.28;;;18.82;33.02
13011;BME280;6786;57.632;11.962;2023-12-07T05:41:45;101522.78;;;18.81;33.03
13011;BME280;6786;57.632;11.962;2023-12-07T05:44:14;101525.56;;;18.80;33.04
13011;BME280;6786;57.632;11.962;2023-12-07T05:46:48;101526.44;;;18.80;33.03
13011;BME280;6786;57.632;11.962;2023-12-07T05:49:18;101542.50;;;18.80;32.96
13011;BME280;6786;57.632;11.962;2023-12-07T05:51:49;101530.94;;;18.80;32.99
13011;BME280;6786;57.632;11.962;2023-12-07T05:54:17;101521.91;;;18.81;32.94
13011;BME280;6786;57.632;11.962;2023-12-07T05:56:47;101525.56;;;18.80;33.00
13011;BME280;6786;57.632;11.962;2023-12-07T05:59:15;101521.91;;;18.81;32.95
13011;BME280;6786;57.632;11.962;2023-12-07T06:01:44;101519.34;;;18.79;32.98
13011;BME280;6786;57.632;11.962;2023-12-07T06:04:12;101514.88;;;18.80;32.99
13011;BME280;6786;57.632;11.962;2023-12-07T06:06:44;101521.91;;;18.81;32.95
13011;BME280;6786;57.632;11.962;2023-12-07T06:09:13;101514.88;;;18.80;33.00
13011;BME280;6786;57.632;11.962;2023-12-07T06:11:41;101521.91;;;18.81;32.92
13011;BME280;6786;57.632;11.962;2023-12-07T06:14:09;101521.91;;;18.81;32.99
13011;BME280;6786;57.632;11.962;2023-12-07T06:16:38;101518.28;;;18.82;32.97
13011;BME280;6786;57.632;11.962;2023-12-07T06:19:06;101521.91;;;18.81;33.01
13011;BME280;6786;57.632;11.962;2023-12-07T06:21:35;101526.34;;;18.82;32.95
13011;BME280;6786;57.632;11.962;2023-12-07T06:24:05;101517.44;;;18.81;32.97
13011;BME280;6786;57.632;11.962;2023-12-07T06:26:33;101520.22;;;18.80;32.91
13011;BME280;6786;57.632;11.962;2023-12-07T06:29:02;101527.28;;;18.81;32.97
13011;BME280;6786;57.632;11.962;2023-12-07T06:31:30;101518.53;;;18.79;32.91
13011;BME280;6786;57.632;11.962;2023-12-07T06:33:58;101521.91;;;18.81;32.98
13011;BME280;6786;57.632;11.962;2023-12-07T06:36:27;101521.91;;;18.81;33.01
13011;BME280;6786;57.632;11.962;2023-12-07T06:38:55;101527.28;;;18.81;33.02
13011;BME280;6786;57.632;11.962;2023-12-07T06:41:26;101521.91;;;18.81;33.03
13011;BME280;6786;57.632;11.962;2023-12-07T06:43:54;101522.78;;;18.81;33.04
13011;BME280;6786;57.632;11.962;2023-12-07T06:46:25;101520.00;;;18.83;32.92
13011;BME280;6786;57.632;11.962;2023-12-07T06:48:53;101520.00;;;18.83;32.95
13011;BME280;6786;57.632;11.962;2023-12-07T06:51:21;101529.00;;;18.82;33.01
13011;BME280;6786;57.632;11.962;2023-12-07T06:53:50;101529.00;;;18.82;32.98
13011;BME280;6786;57.632;11.962;2023-12-07T06:56:18;101539.72;;;18.82;32.98
13011;BME280;6786;57.632;11.962;2023-12-07T06:58:48;101538.00;;;18.81;33.01
13011;BME280;6786;57.632;11.962;2023-12-07T07:01:16;101538.00;;;18.81;32.94
13011;BME280;6786;57.632;11.962;2023-12-07T07:03:44;101534.47;;;18.80;32.98
13011;BME280;6786;57.632;11.962;2023-12-07T07:06:13;101543.34;;;18.81;33.04
13011;BME280;6786;57.632;11.962;2023-12-07T07:08:41;101543.34;;;18.81;32.88
13011;BME280;6786;57.632;11.962;2023-12-07T07:11:12;101544.22;;;18.81;32.94
13011;BME280;6786;57.632;11.962;2023-12-07T07:13:41;101546.88;;;18.81;33.02
13011;BME280;6786;57.632;11.962;2023-12-07T07:16:11;101545.06;;;18.82;32.92
13011;BME280;6786;57.632;11.962;2023-12-07T07:18:39;101548.59;;;18.82;32.93
13011;BME280;6786;57.632;11.962;2023-12-07T07:21:08;101544.22;;;18.81;32.92
13011;BME280;6786;57.632;11.962;2023-12-07T07:23:36;101545.06;;;18.82;33.00
13011;BME280;6786;57.632;11.962;2023-12-07T07:26:05;101538.00;;;18.81;32.92
13011;BME280;6786;57.632;11.962;2023-12-07T07:28:33;101538.84;;;18.81;33.03
13011;BME280;6786;57.632;11.962;2023-12-07T07:31:03;101543.34;;;18.81;32.83
13011;BME280;6786;57.632;11.962;2023-12-07T07:33:32;101549.56;;;18.81;32.89
13011;BME280;6786;57.632;11.962;2023-12-07T07:36:01;101545.31;;;18.79;32.92
13011;BME280;6786;57.632;11.962;2023-12-07T07:38:29;101547.00;;;18.80;32.91
13011;BME280;6786;57.632;11.962;2023-12-07T07:40:57;101541.66;;;18.80;32.96
13011;BME280;6786;57.632;11.962;2023-12-07T07:43:25;101545.06;;;18.82;32.87
13011;BME280;6786;57.632;11.962;2023-12-07T07:45:54;101533.50;;;18.81;32.94
13011;BME280;6786;57.632;11.962;2023-12-07T07:48:22;101543.34;;;18.81;32.88
13011;BME280;6786;57.632;11.962;2023-12-07T07:50:54;101534.59;;;18.79;32.85
13011;BME280;6786;57.632;11.962;2023-12-07T07:53:22;101538.84;;;18.81;32.93
13011;BME280;6786;57.632;11.962;2023-12-07T07:55:51;101535.31;;;18.81;33.07
13011;BME280;6786;57.632;11.962;2023-12-07T07:58:19;101545.06;;;18.82;32.88
13011;BME280;6786;57.632;11.962;2023-12-07T08:00:48;101538.00;;;18.81;32.95
13011;BME280;6786;57.632;11.962;2023-12-07T08:03:16;101537.16;;;18.80;32.92
13011;BME280;6786;57.632;11.962;2023-12-07T08:05:45;101529.97;;;18.81;32.91
13011;BME280;6786;57.632;11.962;2023-12-07T08:08:15;101519.34;;;18.79;32.85
13011;BME280;6786;57.632;11.962;2023-12-07T08:10:43;101520.22;;;18.80;32.92
13011;BME280;6786;57.632;11.962;2023-12-07T08:13:22;101523.88;;;18.79;32.77
13011;BME280;6786;57.632;11.962;2023-12-07T08:15:50;101522.91;;;18.80;32.93
13011;BME280;6786;57.632;11.962;2023-12-07T08:18:23;101524.72;;;18.79;32.95
13011;BME280;6786;57.632;11.962;2023-12-07T08:20:53;101528.25;;;18.80;32.88
13011;BME280;6786;57.632;11.962;2023-12-07T08:23:23;101526.44;;;18.80;32.83
13011;BME280;6786;57.632;11.962;2023-12-07T08:25:51;101532.63;;;18.81;32.79
13011;BME280;6786;57.632;11.962;2023-12-07T08:28:19;101527.28;;;18.81;32.82
13011;BME280;6786;57.632;11.962;2023-12-07T08:30:47;101520.22;;;18.80;32.81
13011;BME280;6786;57.632;11.962;2023-12-07T08:33:16;101519.25;;;18.81;32.85
13011;BME280;6786;57.632;11.962;2023-12-07T08:35:44;101517.53;;;18.80;32.86
13011;BME280;6786;57.632;11.962;2023-12-07T08:38:13;101511.44;;;18.78;32.81
13011;BME280;6786;57.632;11.962;2023-12-07T08:40:42;101513.16;;;18.79;32.87
13011;BME280;6786;57.632;11.962;2023-12-07T08:43:11;101508.63;;;18.79;32.83
13011;BME280;6786;57.632;11.962;2023-12-07T08:45:39;101513.16;;;18.79;32.84
13011;BME280;6786;57.632;11.962;2023-12-07T08:48:07;101510.50;;;18.79;32.79
13011;BME280;6786;57.632;11.962;2023-12-07T08:50:36;101514.88;;;18.80;32.82
13011;BME280;6786;57.632;11.962;2023-12-07T08:53:04;101514.88;;;18.80;32.88
13011;BME280;6786;57.632;11.962;2023-12-07T08:55:33;101510.38;;;18.80;32.80
13011;BME280;6786;57.632;11.962;2023-12-07T08:58:03;101511.22;;;18.81;32.80
13011;BME280;6786;57.632;11.962;2023-12-07T09:00:32;101504.16;;;18.80;32.94
13011;BME280;6786;57.632;11.962;2023-12-07T09:03:00;101498.03;;;18.78;32.81
13011;BME280;6786;57.632;11.962;2023-12-07T09:05:29;101505.00;;;18.80;32.95
13011;BME280;6786;57.632;11.962;2023-12-07T09:07:58;101497.81;;;18.81;32.89
13011;BME280;6786;57.632;11.962;2023-12-07T09:10:26;101505.84;;;18.81;32.84
13011;BME280;6786;57.632;11.962;2023-12-07T09:12:55;101497.09;;;18.79;32.93
13011;BME280;6786;57.632;11.962;2023-12-07T09:15:25;101502.44;;;18.79;32.80
13011;BME280;6786;57.632;11.962;2023-12-07T09:17:53;101501.47;;;18.80;32.84
13011;BME280;6786;57.632;11.962;2023-12-07T09:20:22;101504.16;;;18.80;32.85
13011;BME280;6786;57.632;11.962;2023-12-07T09:22:51;101509.50;;;18.80;32.99
13011;BME280;6786;57.632;11.962;2023-12-07T09:25:21;101502.44;;;18.79;32.77
13011;BME280;6786;57.632;11.962;2023-12-07T09:27:50;101498.78;;;18.80;32.92
13011;BME280;6786;57.632;11.962;2023-12-07T09:30:18;101501.47;;;18.80;32.79
13011;BME280;6786;57.632;11.962;2023-12-07T09:32:48;101502.44;;;18.79;32.87
13011;BME280;6786;57.632;11.962;2023-12-07T09:35:16;101504.16;;;18.80;32.91
13011;BME280;6786;57.632;11.962;2023-12-07T09:37:48;101504.16;;;18.80;32.85
13011;BME280;6786;57.632;11.962;2023-12-07T09:40:17;101508.63;;;18.79;32.85
13011;BME280;6786;57.632;11.962;2023-12-07T09:42:47;101506.06;;;18.78;32.76
13011;BME280;6786;57.632;11.962;2023-12-07T09:45:17;101500.72;;;18.78;32.88
13011;BME280;6786;57.632;11.962;2023-12-07T09:47:50;101507.81;;;18.79;32.81
13011;BME280;6786;57.632;11.962;2023-12-07T09:50:19;101513.16;;;18.79;32.80
13011;BME280;6786;57.632;11.962;2023-12-07T09:52:50;101507.81;;;18.79;32.83
13011;BME280;6786;57.632;11.962;2023-12-07T09:55:33;101507.81;;;18.79;32.80
13011;BME280;6786;57.632;11.962;2023-12-07T09:58:03;101512.19;;;18.80;32.85
13011;BME280;6786;57.632;11.962;2023-12-07T10:00:34;101498.03;;;18.78;32.85
13011;BME280;6786;57.632;11.962;2023-12-07T10:03:05;101498.78;;;18.80;32.54
13011;BME280;6786;57.632;11.962;2023-12-07T10:05:53;101499.66;;;18.80;32.83
13011;BME280;6786;57.632;11.962;2023-12-07T10:08:26;101498.78;;;18.80;32.82
13011;BME280;6786;57.632;11.962;2023-12-07T10:11:05;101497.94;;;18.79;32.81
13011;BME280;6786;57.632;11.962;2023-12-07T10:13:35;101497.94;;;18.79;32.79
13011;BME280;6786;57.632;11.962;2023-12-07T10:16:09;101495.13;;;18.81;32.82
13011;BME280;6786;57.632;11.962;2023-12-07T10:18:39;101490.75;;;18.80;32.75
13011;BME280;6786;57.632;11.962;2023-12-07T10:21:11;101497.81;;;18.81;32.78
13011;BME280;6786;57.632;11.962;2023-12-07T10:23:41;101488.09;;;18.80;32.72
13011;BME280;6786;57.632;11.962;2023-12-07T10:26:16;101489.78;;;18.81;32.70
13011;BME280;6786;57.632;11.962;2023-12-07T10:28:48;101493.44;;;18.80;32.83
13011;BME280;6786;57.632;11.962;2023-12-07T10:31:21;101491.75;;;18.79;32.72
13011;BME280;6786;57.632;11.962;2023-12-07T10:33:52;101457.56;;;18.59;32.83
13011;BME280;6786;57.632;11.962;2023-12-07T10:36:21;101493.44;;;18.80;32.83
13011;BME280;6786;57.632;11.962;2023-12-07T10:38:50;101487.22;;;18.79;32.74
13011;BME280;6786;57.632;11.962;2023-12-07T10:41:19;101479.06;;;18.81;32.88
13011;BME280;6786;57.632;11.962;2023-12-07T10:43:49;101479.06;;;18.81;32.83
13011;BME280;6786;57.632;11.962;2023-12-07T10:46:21;101473.72;;;18.81;32.85
13011;BME280;6786;57.632;11.962;2023-12-07T10:48:59;101475.44;;;18.82;32.79
13011;BME280;6786;57.632;11.962;2023-12-07T10:51:31;101459.84;;;18.76;32.90
13011;BME280;6786;57.632;11.962;2023-12-07T10:54:01;101476.38;;;18.81;32.85
13011;BME280;6786;57.632;11.962;2023-12-07T10:56:37;101477.38;;;18.80;32.95
13011;BME280;6786;57.632;11.962;2023-12-07T10:59:09;101484.44;;;18.81;32.82
13011;BME280;6786;57.632;11.962;2023-12-07T11:01:53;101484.44;;;18.81;32.83
13011;BME280;6786;57.632;11.962;2023-12-07T11:04:25;101480.03;;;18.80;32.92
13011;BME280;6786;57.632;11.962;2023-12-07T11:06:55;101482.72;;;18.80;32.79
13011;BME280;6786;57.632;11.962;2023-12-07T11:09:28;101464.91;;;18.68;32.81
13011;BME280;6786;57.632;11.962;2023-12-07T11:12:05;101479.06;;;18.81;32.84
13011;BME280;6786;57.632;11.962;2023-12-07T11:14:38;101486.16;;;18.82;32.82
13011;BME280;6786;57.632;11.962;2023-12-07T11:17:07;101482.72;;;18.80;32.76
13011;BME280;6786;57.632;11.962;2023-12-07T11:19:47;101486.16;;;18.82;32.80
13011;BME280;6786;57.632;11.962;2023-12-07T11:22:15;101493.31;;;18.81;32.85
13011;BME280;6786;57.632;11.962;2023-12-07T11:24:54;101484.44;;;18.81;32.89
13011;BME280;6786;57.632;11.962;2023-12-07T11:27:24;101501.34;;;18.81;32.85
13011;BME280;6786;57.632;11.962;2023-12-07T11:29:53;101495.13;;;18.81;32.80
13011;BME280;6786;57.632;11.962;2023-12-07T11:32:21;101491.63;;;18.80;32.87
13011;BME280;6786;57.632;11.962;2023-12-07T11:35:01;101488.94;;;18.80;32.86
13011;BME280;6786;57.632;11.962;2023-12-07T11:38:04;101497.09;;;18.79;32.80
13011;BME280;6786;57.632;11.962;2023-12-07T11:40:36;101464.63;;;18.60;32.86
13011;BME280;6786;57.632;11.962;2023-12-07T11:43:05;101501.47;;;18.80;32.92
13011;BME280;6786;57.632;11.962;2023-12-07T11:45:40;101505.84;;;18.81;32.89
13011;BME280;6786;57.632;11.962;2023-12-07T11:48:10;101511.22;;;18.81;32.91
13011;BME280;6786;57.632;11.962;2023-12-07T11:50:57;101505.00;;;18.80;32.73
13011;BME280;6786;57.632;11.962;2023-12-07T11:53:27;101512.19;;;18.80;32.75
13011;BME280;6786;57.632;11.962;2023-12-07T11:55:57;101506.72;;;18.81;32.77
13011;BME280;6786;57.632;11.962;2023-12-07T11:58:26;101508.53;;;18.81;32.88
13011;BME280;6786;57.632;11.962;2023-12-07T12:00:55;101506.84;;;18.80;32.77
13011;BME280;6786;57.632;11.962;2023-12-07T12:03:24;101498.78;;;18.80;32.90
13011;BME280;6786;57.632;11.962;2023-12-07T12:05:52;101504.16;;;18.80;32.90
13011;BME280;6786;57.632;11.962;2023-12-07T12:08:23;101503.16;;;18.81;32.74
13011;BME280;6786;57.632;11.962;2023-12-07T12:10:52;101494.31;;;18.80;32.89
13011;BME280;6786;57.632;11.962;2023-12-07T12:13:26;101494.31;;;18.80;32.89
13011;BME280;6786;57.632;11.962;2023-12-07T12:15:56;101456.50;;;18.61;32.97
13011;BME280;6786;57.632;11.962;2023-12-07T12:18:28;101502.22;;;18.82;32.82
13011;BME280;6786;57.632;11.962;2023-12-07T12:20:56;101499.53;;;18.82;32.74
13011;BME280;6786;57.632;11.962;2023-12-07T12:23:28;101503.06;;;18.82;32.75
13011;BME280;6786;57.632;11.962;2023-12-07T12:25:56;101503.94;;;18.83;32.92
13011;BME280;6786;57.632;11.962;2023-12-07T12:28:26;101502.22;;;18.82;32.89
13011;BME280;6786;57.632;11.962;2023-12-07T12:30:55;101496.88;;;18.82;32.86
13011;BME280;6786;57.632;11.962;2023-12-07T12:33:23;101507.59;;;18.82;32.87
13011;BME280;6786;57.632;11.962;2023-12-07T12:36:01;101505.84;;;18.81;32.83
13011;BME280;6786;57.632;11.962;2023-12-07T12:38:31;101495.38;;;18.78;32.86
13011;BME280;6786;57.632;11.962;2023-12-07T12:41:09;101499.66;;;18.80;32.87
13011;BME280;6786;57.632;11.962;2023-12-07T12:43:37;101499.66;;;18.80;32.92
13011;BME280;6786;57.632;11.962;2023-12-07T12:46:06;101495.13;;;18.81;32.86
13011;BME280;6786;57.632;11.962;2023-12-07T12:48:34;101493.44;;;18.80;32.92
13011;BME280;6786;57.632;11.962;2023-12-07T12:51:13;101486.16;;;18.82;32.84
13011;BME280;6786;57.632;11.962;2023-12-07T12:53:44;101486.16;;;18.82;32.87
13011;BME280;6786;57.632;11.962;2023-12-07T12:56:18;101487.09;;;18.81;32.80
13011;BME280;6786;57.632;11.962;2023-12-07T12:58:47;101481.03;;;18.79;32.89
13011;BME280;6786;57.632;11.962;2023-12-07T13:01:16;101481.03;;;18.79;32.97
13011;BME280;6786;57.632;11.962;2023-12-07T13:03:45;101486.16;;;18.82;32.81